createdAt,value
2023-05-24T00:02:17.613Z,70.00
2023-05-24T00:04:46.224Z,70.30
2023-05-24T00:07:14.329Z,70.50
2023-05-24T00:09:42.424Z,70.20
2023-05-24T00:12:10.609Z,70.20
2023-05-24T00:14:40.099Z,70.10
2023-05-24T00:17:09.665Z,70.00
2023-05-24T00:19:46.439Z,70.30
2023-05-24T00:22:22.932Z,70.20
2023-05-24T00:24:52.496Z,70.00
2023-05-24T00:27:23.989Z,70.00
2023-05-24T00:29:58.789Z,69.90
2023-05-24T00:32:29.035Z,70.10
2023-05-24T00:35:02.449Z,70.10
2023-05-24T00:37:33.615Z,70.10
2023-05-24T00:40:11.735Z,70.00
2023-05-24T00:42:40.427Z,70.20
2023-05-24T00:45:20.165Z,70.00
2023-05-24T00:47:49.473Z,70.10
2023-05-24T00:50:17.839Z,70.30
2023-05-24T00:52:48.138Z,70.10
2023-05-24T00:55:20.265Z,70.00
2023-05-24T00:57:52.025Z,70.00
2023-05-24T01:00:23.610Z,69.90
2023-05-24T01:02:54.219Z,69.90
2023-05-24T01:05:25.972Z,69.80
2023-05-24T01:08:11.920Z,69.80
2023-05-24T01:10:51.663Z,69.60
2023-05-24T01:13:28.347Z,69.50
2023-05-24T01:16:09.704Z,69.30
2023-05-24T01:18:45.714Z,69.20
2023-05-24T01:21:31.393Z,69.40
2023-05-24T01:24:29.200Z,69.70
2023-05-24T01:27:29.734Z,69.50
2023-05-24T01:30:02.336Z,69.50
2023-05-24T01:32:32.554Z,69.60
2023-05-24T01:35:01.999Z,69.50
2023-05-24T01:37:33.735Z,69.80
2023-05-24T01:40:04.639Z,69.80
2023-05-24T01:42:42.977Z,69.80
2023-05-24T01:45:22.106Z,69.60
2023-05-24T01:48:05.585Z,69.50
2023-05-24T01:50:40.526Z,69.50
2023-05-24T01:53:14.576Z,69.30
2023-05-24T01:55:45.698Z,69.10
2023-05-24T01:58:17.449Z,69.40
2023-05-24T02:00:47.412Z,69.30
2023-05-24T02:03:17.271Z,69.20
2023-05-24T02:08:32.288Z,69.30
2023-05-24T02:11:16.596Z,68.90
2023-05-24T02:13:56.833Z,69.30
2023-05-24T02:16:31.373Z,69.10
2023-05-24T02:19:01.661Z,68.80
2023-05-24T02:21:32.789Z,69.00
2023-05-24T02:24:04.640Z,68.80
2023-05-24T02:26:42.969Z,68.90
2023-05-24T02:29:16.539Z,69.10
2023-05-24T02:31:46.752Z,69.00
2023-05-24T02:34:14.914Z,69.10
2023-05-24T02:36:46.335Z,69.10
2023-05-24T02:39:17.088Z,69.10
2023-05-24T02:41:47.581Z,69.10
2023-05-24T02:44:18.302Z,69.20
2023-05-24T02:46:48.659Z,69.20
2023-05-24T02:49:20.140Z,69.20
2023-05-24T02:51:48.638Z,69.50
2023-05-24T02:54:19.142Z,69.60
2023-05-24T02:57:02.388Z,69.30
2023-05-24T02:59:38.668Z,69.40
2023-05-24T03:02:09.081Z,69.50
2023-05-24T03:04:40.293Z,69.50
2023-05-24T03:07:10.734Z,69.50
2023-05-24T03:09:49.965Z,69.40
2023-05-24T03:12:23.947Z,69.20
2023-05-24T03:14:58.374Z,69.70
2023-05-24T03:17:33.853Z,69.70
2023-05-24T03:20:18.508Z,69.60
2023-05-24T03:25:43.826Z,70.00
2023-05-24T03:28:15.173Z,70.10
2023-05-24T03:31:03.688Z,70.20
2023-05-24T03:33:32.219Z,70.00
2023-05-24T03:36:02.784Z,70.10
2023-05-24T03:38:31.299Z,70.30
2023-05-24T03:41:02.102Z,70.00
2023-05-24T03:43:31.812Z,70.10
2023-05-24T03:46:06.165Z,70.10
2023-05-24T03:51:32.024Z,70.30
2023-05-24T03:54:03.634Z,70.20
2023-05-24T03:56:40.268Z,70.30
2023-05-24T04:01:52.314Z,70.30
2023-05-24T04:04:23.823Z,70.00
2023-05-24T04:06:56.246Z,70.20
2023-05-24T04:09:29.813Z,70.20
2023-05-24T04:11:57.957Z,70.10
2023-05-24T04:14:37.674Z,70.20
2023-05-24T04:17:09.455Z,70.20
2023-05-24T04:19:39.061Z,70.00
2023-05-24T04:22:10.801Z,70.30
2023-05-24T04:24:40.603Z,70.10
2023-05-24T04:27:18.797Z,70.20
2023-05-24T04:29:49.706Z,70.40
2023-05-24T04:32:24.796Z,70.40
2023-05-24T04:34:56.076Z,70.30
2023-05-24T04:37:27.846Z,70.30
2023-05-24T04:39:59.979Z,70.50
2023-05-24T04:42:32.247Z,70.60
2023-05-24T04:45:00.789Z,70.70
2023-05-24T04:47:33.477Z,70.50
2023-05-24T04:50:06.234Z,70.70
2023-05-24T04:52:44.360Z,70.60
2023-05-24T04:55:22.087Z,70.80
2023-05-24T04:58:04.141Z,70.80
2023-05-24T05:00:33.924Z,70.60
2023-05-24T05:03:10.941Z,70.60
2023-05-24T05:05:50.666Z,70.70
2023-05-24T05:08:29.772Z,70.60
2023-05-24T05:11:00.118Z,70.40
2023-05-24T05:13:35.311Z,70.20
2023-05-24T05:16:05.576Z,70.20
2023-05-24T05:21:33.359Z,70.20
2023-05-24T05:24:03.664Z,70.00
2023-05-24T05:26:44.851Z,69.90
2023-05-24T05:29:15.314Z,69.90
2023-05-24T05:32:00.092Z,69.90
2023-05-24T05:34:49.375Z,69.90
2023-05-24T05:37:28.823Z,69.70
2023-05-24T05:42:40.769Z,70.00
2023-05-24T05:45:09.982Z,70.30
2023-05-24T05:47:38.173Z,70.00
2023-05-24T05:50:08.758Z,70.00
2023-05-24T05:52:36.956Z,69.80
2023-05-24T05:55:05.589Z,70.10
2023-05-24T05:57:33.731Z,70.00
2023-05-24T06:00:01.941Z,70.10
2023-05-24T06:02:30.179Z,70.10
2023-05-24T06:04:58.553Z,70.10
2023-05-24T06:07:28.108Z,70.00
2023-05-24T06:09:56.254Z,70.00
2023-05-24T06:12:24.501Z,69.90
2023-05-24T06:14:52.638Z,69.60
2023-05-24T06:17:24.360Z,69.60
2023-05-24T06:19:53.830Z,69.60
2023-05-24T06:22:23.079Z,70.00
2023-05-24T06:24:52.613Z,69.90
2023-05-24T06:27:21.440Z,69.60
2023-05-24T06:29:49.691Z,69.30
2023-05-24T06:32:18.059Z,69.00
2023-05-24T06:34:46.585Z,68.90
2023-05-24T06:37:16.230Z,68.50
2023-05-24T06:39:44.434Z,68.20
2023-05-24T06:42:14.062Z,67.90
2023-05-24T06:44:42.282Z,67.90
2023-05-24T06:47:10.544Z,68.00
2023-05-24T06:49:39.113Z,68.00
2023-05-24T06:52:08.512Z,68.50
2023-05-24T06:54:36.772Z,68.20
2023-05-24T06:57:05.468Z,68.20
2023-05-24T06:59:35.005Z,67.80
2023-05-24T07:02:04.111Z,67.30
2023-05-24T07:04:32.925Z,67.50
2023-05-24T07:07:01.263Z,67.20
2023-05-24T07:09:29.416Z,67.20
2023-05-24T07:11:57.598Z,67.10
2023-05-24T07:14:26.212Z,67.00
2023-05-24T07:16:57.560Z,66.50
2023-05-24T07:19:29.265Z,66.90
2023-05-24T07:21:57.947Z,67.40
2023-05-24T07:24:26.495Z,67.00
2023-05-24T07:26:56.767Z,66.70
2023-05-24T07:29:26.076Z,65.80
2023-05-24T07:31:58.236Z,65.80
2023-05-24T07:34:30.211Z,65.70
2023-05-24T07:37:00.699Z,65.60
2023-05-24T07:39:29.407Z,65.70
2023-05-24T07:41:57.673Z,65.90
2023-05-24T07:44:26.284Z,65.80
2023-05-24T07:46:56.074Z,65.60
2023-05-24T07:49:24.456Z,66.20
2023-05-24T07:51:53.117Z,66.20
2023-05-24T07:54:21.564Z,65.80
2023-05-24T07:56:50.505Z,65.50
2023-05-24T07:59:19.172Z,65.70
2023-05-24T08:01:47.957Z,65.70
2023-05-24T08:04:17.619Z,65.50
2023-05-24T08:06:46.869Z,65.20
2023-05-24T08:09:15.245Z,65.20
2023-05-24T08:11:43.482Z,65.30
2023-05-24T08:14:11.816Z,65.30
2023-05-24T08:16:40.024Z,65.50
2023-05-24T08:19:08.296Z,65.40
2023-05-24T08:21:38.338Z,65.10
2023-05-24T08:24:09.472Z,65.20
2023-05-24T08:26:41.497Z,64.70
2023-05-24T08:29:13.015Z,65.40
2023-05-24T08:31:42.311Z,65.50
2023-05-24T08:34:18.384Z,65.50
2023-05-24T08:36:59.311Z,65.20
2023-05-24T08:39:27.497Z,65.20
2023-05-24T08:42:08.689Z,65.50
2023-05-24T08:44:44.754Z,65.60
2023-05-24T08:47:22.570Z,65.40
2023-05-24T08:49:52.992Z,64.90
2023-05-24T08:52:24.665Z,65.20
2023-05-24T08:54:54.533Z,64.90
2023-05-24T08:57:23.538Z,64.70
2023-05-24T08:59:53.724Z,64.10
2023-05-24T09:02:22.331Z,63.70
2023-05-24T09:04:51.750Z,63.50
2023-05-24T09:07:23.550Z,63.90
2023-05-24T09:09:58.615Z,64.00
2023-05-24T09:12:38.220Z,63.60
2023-05-24T09:15:11.909Z,63.80
2023-05-24T09:17:41.208Z,63.60
2023-05-24T09:20:11.992Z,63.00
2023-05-24T09:22:43.068Z,63.40
2023-05-24T09:25:16.159Z,63.30
2023-05-24T09:27:50.082Z,63.40
2023-05-24T09:30:18.384Z,63.20
2023-05-24T09:32:57.757Z,63.20
2023-05-24T09:35:27.072Z,63.40
2023-05-24T09:38:00.174Z,63.10
2023-05-24T09:40:31.067Z,63.20
2023-05-24T09:43:07.675Z,63.80
2023-05-24T09:45:43.009Z,63.70
2023-05-24T09:48:13.550Z,64.00
2023-05-24T09:50:42.137Z,63.70
2023-05-24T09:53:10.830Z,63.70
2023-05-24T09:55:40.463Z,63.60
2023-05-24T09:58:09.727Z,63.90
2023-05-24T10:00:42.661Z,63.70
2023-05-24T10:03:13.321Z,63.30
2023-05-24T10:05:45.221Z,63.60
2023-05-24T10:08:14.552Z,63.40
2023-05-24T10:10:45.176Z,63.30
2023-05-24T10:13:15.896Z,63.40
2023-05-24T10:15:45.392Z,63.20
2023-05-24T10:18:14.298Z,63.30
2023-05-24T10:20:43.202Z,63.00
2023-05-24T10:23:16.455Z,63.30
2023-05-24T10:25:53.987Z,63.40
2023-05-24T10:28:25.058Z,62.90
2023-05-24T10:31:02.923Z,62.70
2023-05-24T10:33:35.186Z,62.50
2023-05-24T10:36:08.004Z,62.20
2023-05-24T10:38:40.032Z,61.70
2023-05-24T10:41:10.049Z,62.00
2023-05-24T10:43:39.325Z,62.10
2023-05-24T10:46:10.847Z,62.10
2023-05-24T10:48:40.891Z,62.00
2023-05-24T10:51:40.060Z,62.10
2023-05-24T10:54:21.655Z,62.10
2023-05-24T10:56:53.548Z,62.00
2023-05-24T10:59:40.459Z,61.80
2023-05-24T11:02:14.084Z,61.40
2023-05-24T11:04:44.559Z,61.40
2023-05-24T11:07:15.271Z,61.70
2023-05-24T11:09:47.299Z,61.70
2023-05-24T11:12:18.560Z,61.70
2023-05-24T11:14:50.504Z,62.00
2023-05-24T11:17:20.356Z,62.00
2023-05-24T11:19:51.675Z,61.90
2023-05-24T11:22:22.038Z,61.80
2023-05-24T11:24:50.484Z,61.80
2023-05-24T11:27:20.226Z,61.90
2023-05-24T11:29:49.413Z,62.20
2023-05-24T11:32:19.045Z,62.00
2023-05-24T11:34:48.791Z,62.30
2023-05-24T11:37:18.603Z,62.30
2023-05-24T11:39:51.494Z,62.30
2023-05-24T11:42:22.767Z,62.40
2023-05-24T11:44:51.641Z,62.50
2023-05-24T11:47:22.717Z,62.70
2023-05-24T11:49:54.245Z,62.80
2023-05-24T11:52:22.862Z,62.80
2023-05-24T11:54:51.303Z,62.90
2023-05-24T11:57:28.311Z,62.90
2023-05-24T11:59:58.129Z,63.00
2023-05-24T12:02:26.373Z,62.80
2023-05-24T12:04:55.339Z,62.50
2023-05-24T12:07:25.055Z,62.40
2023-05-24T12:09:53.232Z,62.40
2023-05-24T12:12:30.655Z,62.70
2023-05-24T12:15:02.127Z,62.70
2023-05-24T12:17:30.667Z,62.20
2023-05-24T12:19:58.978Z,62.00
2023-05-24T12:22:30.914Z,62.00
2023-05-24T12:24:59.436Z,61.40
2023-05-24T12:27:30.920Z,61.40
2023-05-24T12:30:07.335Z,60.40
2023-05-24T12:32:35.618Z,61.10
2023-05-24T12:35:06.191Z,60.30
2023-05-24T12:37:35.090Z,60.60
2023-05-24T12:40:05.362Z,60.20
2023-05-24T12:42:36.595Z,59.80
2023-05-24T12:45:05.079Z,59.90
2023-05-24T12:47:33.284Z,60.30
2023-05-24T12:50:01.433Z,60.20
2023-05-24T12:52:29.680Z,60.10
2023-05-24T12:54:57.865Z,59.60
2023-05-24T12:57:26.038Z,59.40
2023-05-24T12:59:55.571Z,59.20
2023-05-24T13:02:23.999Z,58.60
2023-05-24T13:04:52.321Z,58.70
2023-05-24T13:07:20.536Z,59.20
2023-05-24T13:09:49.329Z,59.40
2023-05-24T13:12:17.711Z,59.00
2023-05-24T13:14:45.855Z,58.60
2023-05-24T13:17:16.433Z,58.70
2023-05-24T13:19:44.788Z,58.50
2023-05-24T13:22:12.998Z,58.00
2023-05-24T13:24:41.177Z,57.60
2023-05-24T13:27:09.592Z,56.70
2023-05-24T13:29:48.799Z,56.50
2023-05-24T13:32:19.937Z,55.80
2023-05-24T13:34:48.143Z,56.10
2023-05-24T13:37:16.733Z,55.60
2023-05-24T13:39:45.085Z,54.90
2023-05-24T13:42:13.532Z,53.70
2023-05-24T13:44:43.147Z,53.70
2023-05-24T13:47:11.485Z,53.40
2023-05-24T13:49:51.592Z,54.10
2023-05-24T13:52:22.726Z,52.80
2023-05-24T13:54:56.822Z,51.70
2023-05-24T13:57:46.999Z,51.50
2023-05-24T14:00:19.536Z,51.30
2023-05-24T14:02:47.870Z,50.70
2023-05-24T14:05:27.507Z,50.50
2023-05-24T14:07:57.676Z,48.30
2023-05-24T14:10:26.148Z,48.30
2023-05-24T14:13:11.962Z,47.50
2023-05-24T14:15:43.134Z,47.50
2023-05-24T14:18:11.874Z,46.80
2023-05-24T14:20:41.715Z,46.10
2023-05-24T14:23:10.571Z,46.60
2023-05-24T14:25:38.764Z,47.30
2023-05-24T14:28:08.637Z,46.90
2023-05-24T14:30:38.779Z,46.30
2023-05-24T14:33:08.389Z,45.30
2023-05-24T14:35:40.158Z,45.70
2023-05-24T14:38:11.610Z,45.00
2023-05-24T14:40:41.106Z,45.10
2023-05-24T14:43:10.562Z,44.70
2023-05-24T14:45:41.751Z,45.40
2023-05-24T14:48:12.436Z,45.60
2023-05-24T14:50:41.633Z,45.70
2023-05-24T14:53:12.742Z,45.80
2023-05-24T14:55:42.885Z,45.80
2023-05-24T14:58:12.623Z,45.00
2023-05-24T15:00:43.958Z,43.60
2023-05-24T15:03:14.559Z,43.20
2023-05-24T15:05:43.115Z,42.10
2023-05-24T15:08:13.159Z,42.00
2023-05-24T15:10:44.480Z,41.10
2023-05-24T15:13:13.285Z,41.50
2023-05-24T15:15:42.109Z,40.90
2023-05-24T15:18:10.372Z,40.60
2023-05-24T15:20:38.595Z,40.80
2023-05-24T15:23:10.480Z,41.00
2023-05-24T15:25:41.031Z,39.70
2023-05-24T15:28:10.695Z,39.00
2023-05-24T15:30:38.889Z,38.30
2023-05-24T15:33:07.179Z,38.90
2023-05-24T15:35:35.376Z,38.80
2023-05-24T15:38:03.538Z,37.60
2023-05-24T15:40:31.733Z,37.30
2023-05-24T15:43:01.252Z,36.30
2023-05-24T15:45:29.487Z,35.90
2023-05-24T15:47:57.672Z,35.60
2023-05-24T15:50:45.666Z,34.70
2023-05-24T15:53:15.209Z,33.80
2023-05-24T15:55:43.977Z,33.40
2023-05-24T15:58:15.667Z,33.20
2023-05-24T16:00:44.329Z,32.70
2023-05-24T16:03:15.617Z,31.80
2023-05-24T16:05:44.292Z,31.20
2023-05-24T16:08:13.302Z,32.40
2023-05-24T16:10:41.645Z,33.90
2023-05-24T16:13:10.066Z,35.10
2023-05-24T16:15:41.836Z,36.80
2023-05-24T16:18:10.196Z,36.30
2023-05-24T16:20:38.464Z,34.20
2023-05-24T16:23:06.733Z,32.80
2023-05-24T16:25:34.902Z,32.50
2023-05-24T16:28:03.713Z,31.70
2023-05-24T16:30:31.992Z,34.00
2023-05-24T16:33:01.601Z,34.20
2023-05-24T16:35:29.864Z,35.40
2023-05-24T16:37:58.170Z,35.70
2023-05-24T16:40:28.388Z,36.20
2023-05-24T16:42:56.598Z,36.70
2023-05-24T16:45:24.776Z,36.80
2023-05-24T16:47:52.980Z,37.10
2023-05-24T16:50:22.718Z,37.20
2023-05-24T16:52:51.578Z,37.20
2023-05-24T16:55:19.963Z,37.70
2023-05-24T16:57:48.124Z,37.80
2023-05-24T17:00:17.029Z,38.20
2023-05-24T17:02:45.484Z,38.30
2023-05-24T17:05:13.672Z,38.60
2023-05-24T17:07:43.300Z,39.10
2023-05-24T17:10:11.854Z,39.20
2023-05-24T17:12:40.048Z,39.30
2023-05-24T17:15:09.095Z,39.70
2023-05-24T17:17:37.518Z,39.90
2023-05-24T17:20:06.976Z,40.20
2023-05-24T17:22:35.260Z,40.50
2023-05-24T17:25:05.154Z,41.10
2023-05-24T17:27:33.326Z,41.30
2023-05-24T17:30:01.679Z,41.90
2023-05-24T17:32:29.904Z,42.00
2023-05-24T17:34:58.187Z,42.40
2023-05-24T17:37:26.360Z,42.40
2023-05-24T17:39:54.538Z,42.30
2023-05-24T17:42:24.958Z,42.70
2023-05-24T17:44:53.162Z,42.80
2023-05-24T17:47:21.600Z,42.70
2023-05-24T17:49:49.816Z,42.70
2023-05-24T17:52:17.962Z,42.80
2023-05-24T17:54:46.275Z,43.00
2023-05-24T17:57:14.434Z,43.20
2023-05-24T17:59:44.242Z,43.30
2023-05-24T18:02:12.412Z,43.30
2023-05-24T18:04:41.016Z,43.30
2023-05-24T18:07:09.221Z,43.50
2023-05-24T18:09:37.542Z,43.60
2023-05-24T18:12:05.970Z,43.50
2023-05-24T18:14:34.596Z,43.60
2023-05-24T18:17:04.358Z,43.90
2023-05-24T18:19:34.308Z,44.10
2023-05-24T18:22:02.687Z,44.10
2023-05-24T18:24:31.055Z,44.40
2023-05-24T18:26:59.656Z,44.60
2023-05-24T18:29:27.817Z,44.80
2023-05-24T18:31:55.984Z,45.00
2023-05-24T18:34:25.628Z,45.10
2023-05-24T18:36:54.795Z,45.40
2023-05-24T18:39:22.983Z,45.60
2023-05-24T18:41:51.217Z,45.80
2023-05-24T18:44:19.557Z,46.00
2023-05-24T18:46:47.694Z,46.20
2023-05-24T18:49:17.697Z,46.50
2023-05-24T18:51:47.269Z,46.70
2023-05-24T18:54:15.560Z,46.50
2023-05-24T18:56:43.968Z,46.40
2023-05-24T18:59:12.785Z,46.50
2023-05-24T19:01:43.907Z,46.50
2023-05-24T19:04:12.201Z,46.70
2023-05-24T19:06:40.407Z,46.70
2023-05-24T19:09:10.290Z,46.80
2023-05-24T19:11:38.594Z,47.00
2023-05-24T19:14:06.962Z,47.40
2023-05-24T19:16:35.309Z,47.80
2023-05-24T19:19:03.905Z,48.10
2023-05-24T19:21:33.181Z,48.40
2023-05-24T19:24:01.470Z,48.70
2023-05-24T19:26:31.013Z,48.80
2023-05-24T19:29:00.584Z,49.10
2023-05-24T19:31:29.637Z,49.30
2023-05-24T19:34:00.895Z,49.40
2023-05-24T19:36:30.928Z,49.20
2023-05-24T19:38:59.069Z,49.20
2023-05-24T19:41:27.244Z,49.50
2023-05-24T19:43:58.594Z,49.80
2023-05-24T19:46:27.080Z,50.20
2023-05-24T19:48:55.365Z,50.60
2023-05-24T19:51:23.763Z,51.10
2023-05-24T19:53:51.962Z,51.60
2023-05-24T19:56:20.827Z,52.20
2023-05-24T19:58:50.077Z,52.80
2023-05-24T20:01:20.772Z,53.40
2023-05-24T20:03:50.078Z,53.80
2023-05-24T20:06:20.691Z,54.10
2023-05-24T20:08:52.841Z,54.60
2023-05-24T20:11:23.228Z,54.90
2023-05-24T20:14:01.009Z,54.80
2023-05-24T20:16:30.986Z,54.90
2023-05-24T20:18:59.281Z,55.20
2023-05-24T20:21:27.537Z,55.40
2023-05-24T20:23:57.964Z,55.50
2023-05-24T20:26:27.435Z,55.80
2023-05-24T20:28:55.930Z,55.90
2023-05-24T20:31:24.329Z,56.00
2023-05-24T20:33:53.943Z,56.30
2023-05-24T20:36:22.290Z,56.60
2023-05-24T20:38:50.482Z,56.80
2023-05-24T20:41:18.787Z,57.00
2023-05-24T20:43:47.469Z,57.50
2023-05-24T20:46:16.569Z,57.50
2023-05-24T20:48:44.980Z,58.10
2023-05-24T20:51:14.504Z,58.40
2023-05-24T20:53:42.663Z,58.60
2023-05-24T20:56:10.850Z,58.80
2023-05-24T20:58:41.254Z,59.10
2023-05-24T21:01:09.626Z,59.30
2023-05-24T21:03:37.912Z,59.50
2023-05-24T21:06:06.257Z,59.50
2023-05-24T21:08:35.854Z,59.60
2023-05-24T21:11:04.014Z,59.80
2023-05-24T21:13:32.174Z,60.00
2023-05-24T21:16:00.429Z,60.10
2023-05-24T21:18:28.593Z,60.30
2023-05-24T21:20:56.734Z,60.50
2023-05-24T21:23:25.269Z,60.70
2023-05-24T21:25:54.845Z,60.90
2023-05-24T21:28:23.025Z,61.40
2023-05-24T21:30:51.373Z,61.70
2023-05-24T21:33:19.578Z,61.90
2023-05-24T21:35:47.802Z,62.10
2023-05-24T21:38:16.244Z,62.30
2023-05-24T21:40:44.526Z,62.50
2023-05-24T21:43:14.119Z,62.70
2023-05-24T21:45:43.015Z,62.80
2023-05-24T21:48:11.486Z,62.60
2023-05-24T21:50:39.751Z,62.90
2023-05-24T21:53:08.093Z,62.70
2023-05-24T21:55:36.379Z,62.90
2023-05-24T21:58:04.660Z,62.70
2023-05-24T22:00:34.296Z,62.60
2023-05-24T22:03:02.576Z,62.60
2023-05-24T22:05:30.796Z,62.70
2023-05-24T22:07:59.094Z,62.70
2023-05-24T22:10:27.907Z,62.80
2023-05-24T22:12:56.099Z,62.70
2023-05-24T22:15:27.011Z,62.70
2023-05-24T22:18:01.459Z,62.60
2023-05-24T22:20:44.911Z,62.80
2023-05-24T22:23:16.086Z,62.70
2023-05-24T22:25:59.797Z,62.80
2023-05-24T22:28:29.049Z,62.80
2023-05-24T22:30:59.394Z,63.10
2023-05-24T22:33:31.439Z,63.10
2023-05-24T22:36:02.242Z,63.60
2023-05-24T22:38:31.006Z,63.70
2023-05-24T22:41:07.327Z,63.80
2023-05-24T22:43:38.103Z,64.00
2023-05-24T22:46:10.639Z,64.40
2023-05-24T22:48:41.899Z,64.50
2023-05-24T22:51:20.159Z,64.50
2023-05-24T22:53:52.837Z,64.60
2023-05-24T22:56:27.131Z,64.90
2023-05-24T22:59:00.193Z,64.70
2023-05-24T23:01:32.815Z,64.90
2023-05-24T23:06:51.606Z,65.00
2023-05-24T23:09:29.556Z,64.90
2023-05-24T23:12:02.150Z,65.00
2023-05-24T23:14:31.537Z,65.30
2023-05-24T23:17:02.717Z,65.20
2023-05-24T23:19:47.357Z,65.30
2023-05-24T23:22:19.051Z,65.50
2023-05-24T23:24:51.025Z,65.50
2023-05-24T23:27:21.512Z,65.50
2023-05-24T23:29:51.966Z,65.40
2023-05-24T23:32:21.634Z,65.30
2023-05-24T23:34:52.408Z,65.30
2023-05-24T23:37:30.403Z,65.30
2023-05-24T23:40:04.423Z,65.30
2023-05-24T23:42:34.925Z,65.50
2023-05-24T23:45:03.140Z,65.40
2023-05-24T23:47:32.183Z,65.70
2023-05-24T23:50:09.243Z,65.70
2023-05-24T23:52:48.262Z,65.70
2023-05-24T23:55:20.175Z,65.80
2023-05-24T23:57:49.378Z,65.80
